Marco Polo — BR2031 — position and weather

sailwx.info

Track history (hours):
 
Tides and Currents Weather Stations Pressure Air Temp Water Temp Dewpoint Dewpoint Depression Visibility Wind Speed Wind Dir Waves Ship Positions

Marco Polo

Last reported at 2014-Oct-24 06:23 UTC. Time now 2014-Oct-24 07:05 UTC.
Position N 24°25' E 118°17'.

Length 32 m.

MMSI: 416000256.

Date/timePositionNaut miles runAvg speedWind from/ knotsBaromVisibWave heightAir tempDewpointWater temp
2014-Oct-24 06:23N 24°25' E 118°17'0 0.0
2014-Oct-24 04:25N 24°25' E 118°17'8 8.7
2014-Oct-24 03:31N 24°32' E 118°12'0 0.1
2014-Oct-24 02:33N 24°32' E 118°12'8 6.9
2014-Oct-24 01:23N 24°25' E 118°17'0 0.3
2014-Oct-24 00:30N 24°25' E 118°17'0 0.0
2014-Oct-23 23:23N 24°25' E 118°17'0 0.0
2014-Oct-23 20:14N 24°25' E 118°17'0 0.0
2014-Oct-23 18:23N 24°25' E 118°17'0 0.0
2014-Oct-23 17:33N 24°25' E 118°17'0 0.0
2014-Oct-23 16:30N 24°25' E 118°17'0 0.0
2014-Oct-23 15:33N 24°25' E 118°17'0 0.0
2014-Oct-23 14:33N 24°25' E 118°17'0 0.0
2014-Oct-23 09:13N 24°25' E 118°17'0 0.4
2014-Oct-23 08:32N 24°25' E 118°17'9 8.8
2014-Oct-23 07:32N 24°32' E 118°11'9 8.8
2014-Oct-23 06:31N 24°25' E 118°17'0 0.3
2014-Oct-23 05:28N 24°25' E 118°17'9 8.4
2014-Oct-23 04:26N 24°32' E 118°11'2 1.9
2014-Oct-23 03:33N 24°32' E 118°13'7 2.4
2014-Oct-23 00:30N 24°25' E 118°17'0 0.0
2014-Oct-22 18:09N 24°25' E 118°17'0 0.0
2014-Oct-22 15:11N 24°25' E 118°17'0 0.1
2014-Oct-22 07:33N 24°25' E 118°17'9 8.2
2014-Oct-22 06:28N 24°32' E 118°11'9 9.8
2014-Oct-22 05:33N 24°25' E 118°17'0 0.1
2014-Oct-22 04:28N 24°25' E 118°17'0 0.5
2014-Oct-22 03:31N 24°25' E 118°17'1 0.8
2014-Oct-22 02:33N 24°26' E 118°17'7 6.8
2014-Oct-22 01:32N 24°32' E 118°12'8 8.2
2014-Oct-22 00:33N 24°25' E 118°17'0 0.0
2014-Oct-21 23:31N 24°25' E 118°17'0 0.0
2014-Oct-21 22:33N 24°25' E 118°17'0 0.0
2014-Oct-21 21:33N 24°25' E 118°17'0 0.0
2014-Oct-21 20:33N 24°25' E 118°17'0 0.0
2014-Oct-21 19:33N 24°25' E 118°17'0 0.0
2014-Oct-21 18:32N 24°25' E 118°17'0 0.0
2014-Oct-21 17:33N 24°25' E 118°17'0 0.0
2014-Oct-21 16:34N 24°25' E 118°17'0 0.0
2014-Oct-21 15:33N 24°25' E 118°17'0 0.0
2014-Oct-21 14:31N 24°25' E 118°17'0 0.1
2014-Oct-21 09:33N 24°25' E 118°17'9 8.5
2014-Oct-21 08:32N 24°32' E 118°11'9 8.8
2014-Oct-21 07:31N 24°25' E 118°17'0 0.4
2014-Oct-21 06:34N 24°25' E 118°17'0 0.2
2014-Oct-21 04:15N 24°25' E 118°17'811.7
2014-Oct-21 03:32N 24°32' E 118°12'1 0.7
2014-Oct-21 02:33N 24°32' E 118°13'8 7.8
2014-Oct-21 01:33N 24°25' E 118°17'0 0.5
2014-Oct-21 00:33N 24°25' E 118°17'0 0.0
2014-Oct-20 23:32N 24°25' E 118°17'0 0.0
2014-Oct-20 22:34N 24°25' E 118°17'0 0.0
2014-Oct-20 21:33N 24°25' E 118°17'0 0.0
2014-Oct-20 20:26N 24°25' E 118°17'0 0.0
2014-Oct-20 19:32N 24°25' E 118°17'0 0.0
2014-Oct-20 18:33N 24°25' E 118°17'0 0.0
2014-Oct-20 17:33N 24°25' E 118°17'0 0.0
2014-Oct-20 16:33N 24°25' E 118°17'0 0.0
2014-Oct-20 15:34N 24°25' E 118°17'0 0.0
2014-Oct-20 09:19N 24°25' E 118°17'0 0.0
2014-Oct-20 08:33N 24°25' E 118°17'0 0.1
2014-Oct-20 06:33N 24°25' E 118°17'9 8.5
2014-Oct-20 05:32N 24°32' E 118°11'2 1.7
2014-Oct-20 04:32N 24°31' E 118°13'7 7.6
2014-Oct-20 03:33N 24°25' E 118°17'0 0.5
2014-Oct-20 02:33N 24°25' E 118°17'0 0.4
2014-Oct-20 01:33N 24°26' E 118°17'7 7.0
2014-Oct-20 00:33N 24°32' E 118°13'8 7.6
2014-Oct-19 23:31N 24°25' E 118°17'0 0.0
2014-Oct-19 22:33N 24°25' E 118°17'0 0.0
2014-Oct-19 21:33N 24°25' E 118°17'0 0.0
2014-Oct-19 20:33N 24°25' E 118°17'0 0.0
2014-Oct-19 19:33N 24°25' E 118°17'0 0.0
2014-Oct-19 18:32N 24°25' E 118°17'0 0.0
2014-Oct-19 17:32N 24°25' E 118°17'0 0.0
2014-Oct-19 16:33N 24°25' E 118°17'0 0.0
2014-Oct-19 15:33N 24°25' E 118°17'0 0.0
2014-Oct-19 10:09N 24°25' E 118°17'813.9
2014-Oct-19 09:33N 24°32' E 118°12'8 7.7
2014-Oct-19 08:33N 24°26' E 118°17'0 0.4
2014-Oct-19 07:33N 24°25' E 118°17'0 0.1
2014-Oct-19 06:30N 24°25' E 118°17'0 0.0
2014-Oct-19 05:32N 24°25' E 118°17'0 0.0
2014-Oct-19 04:27N 24°25' E 118°17'0 0.0
2014-Oct-19 03:33N 24°25' E 118°17'0 0.0
2014-Oct-19 02:27N 24°25' E 118°17'0 0.0
2014-Oct-19 01:29N 24°25' E 118°17'0 0.0
2014-Oct-19 00:33N 24°25' E 118°17'0 0.0
2014-Oct-18 23:33N 24°25' E 118°17'0 0.0
2014-Oct-18 22:33N 24°25' E 118°17'0 0.0
2014-Oct-18 21:33N 24°25' E 118°17'0 0.0
2014-Oct-18 20:33N 24°25' E 118°17'0 0.0
2014-Oct-18 19:32N 24°25' E 118°17'0 0.0
2014-Oct-18 18:33N 24°25' E 118°17'0 0.0
2014-Oct-18 17:33N 24°25' E 118°17'0 0.0
2014-Oct-18 16:33N 24°25' E 118°17'0 0.0
2014-Oct-18 15:33N 24°25' E 118°17'0 0.0
2014-Oct-18 14:23N 24°25' E 118°17'0 0.0
2014-Oct-18 13:33N 24°25' E 118°17'0 0.0
2014-Oct-18 12:31N 24°25' E 118°17'0 0.0
2014-Oct-18 11:26N 24°25' E 118°17'0 0.0
2014-Oct-18 10:31N 24°25' E 118°17'0 0.0
2014-Oct-18 09:30N 24°25' E 118°17'0 0.2
2014-Oct-18 08:33N 24°25' E 118°17'9 8.7
2014-Oct-18 07:34N 24°32' E 118°11'9 8.8
2014-Oct-18 06:33N 24°25' E 118°17'0 0.3
2014-Oct-18 05:33N 24°25' E 118°17'0 0.0
2014-Oct-18 04:33N 24°25' E 118°17'8 7.5
2014-Oct-18 03:33N 24°32' E 118°13'0 0.4
2014-Oct-18 02:33N 24°31' E 118°13'8 7.2
2014-Oct-18 01:31N 24°25' E 118°17'0 0.5
2014-Oct-18 00:33N 24°25' E 118°17'0 0.0
2014-Oct-17 23:33N 24°25' E 118°17'0 0.0
2014-Oct-17 22:34N 24°25' E 118°17'0 0.0
2014-Oct-17 21:32N 24°25' E 118°17'0 0.0
2014-Oct-17 20:33N 24°25' E 118°17'0 0.0
2014-Oct-17 19:33N 24°25' E 118°17'0 0.0
2014-Oct-17 18:31N 24°25' E 118°17'0 0.0
2014-Oct-17 17:33N 24°25' E 118°17'0 0.0
2014-Oct-17 16:34N 24°25' E 118°17'0 0.0
2014-Oct-17 15:33N 24°25' E 118°17'0 0.0
2014-Oct-17 14:30N 24°25' E 118°17'0 0.0
2014-Oct-17 12:17N 24°25' E 118°17'0 0.0
2014-Oct-17 10:13N 24°25' E 118°17'0 0.0
2014-Oct-17 09:33N 24°25' E 118°17'0 0.0
2014-Oct-17 08:33N 24°25' E 118°17'0 0.2
2014-Oct-17 07:33N 24°25' E 118°17'9 8.3
2014-Oct-17 06:31N 24°32' E 118°11'9 9.1
2014-Oct-17 05:32N 24°25' E 118°17'0 0.0
2014-Oct-17 04:33N 24°25' E 118°17'0 0.3
2014-Oct-17 03:11N 24°25' E 118°17'0 0.6
2014-Oct-17 02:33N 24°26' E 118°17'7 7.4
2014-Oct-17 01:33N 24°32' E 118°12'8 6.8
2014-Oct-17 00:21N 24°25' E 118°17'0 0.0
2014-Oct-16 23:33N 24°25' E 118°17'0 0.0
2014-Oct-16 22:32N 24°25' E 118°17'0 0.0
2014-Oct-16 21:30N 24°25' E 118°17'0 0.0
2014-Oct-16 20:29N 24°25' E 118°17'0 0.0
2014-Oct-16 19:32N 24°25' E 118°17'0 0.0
2014-Oct-16 18:33N 24°25' E 118°17'0 0.0
2014-Oct-16 17:33N 24°25' E 118°17'0 0.0
2014-Oct-16 16:33N 24°25' E 118°17'0 0.0
2014-Oct-16 15:32N 24°25' E 118°17'0 0.0
2014-Oct-16 14:32N 24°25' E 118°17'0 0.0
2014-Oct-16 09:33N 24°25' E 118°17'9 8.8
2014-Oct-16 08:32N 24°32' E 118°11'8 8.3
2014-Oct-16 07:31N 24°26' E 118°17'0 0.2
2014-Oct-16 06:33N 24°25' E 118°17'0 0.1
2014-Oct-16 05:31N 24°25' E 118°17'7 7.3
2014-Oct-16 04:33N 24°31' E 118°13'1 0.6
2014-Oct-16 03:33N 24°32' E 118°12'8 7.8
2014-Oct-16 02:31N 24°25' E 118°17'0 0.4
2014-Oct-16 01:30N 24°25' E 118°17'0 0.0
2014-Oct-15 23:12N 24°25' E 118°17'0 0.0
2014-Oct-15 22:33N 24°25' E 118°17'0 0.0
2014-Oct-15 21:31N 24°25' E 118°17'0 0.0
2014-Oct-15 17:27N 24°25' E 118°17'0 0.0
2014-Oct-15 16:33N 24°25' E 118°17'0 0.0
2014-Oct-15 15:32N 24°25' E 118°17'0 0.0
2014-Oct-15 14:33N 24°25' E 118°17'0 0.0
2014-Oct-15 09:33N 24°25' E 118°17'0 0.0
2014-Oct-15 08:32N 24°25' E 118°17'0 0.2
2014-Oct-15 07:32N 24°25' E 118°17'9 8.7
2014-Oct-15 06:32N 24°32' E 118°11'9 8.6
2014-Oct-15 05:30N 24°25' E 118°17'0 0.1
2014-Oct-15 04:27N 24°25' E 118°17'0 0.5
2014-Oct-15 03:32N 24°25' E 118°17'0 0.0
2014-Oct-15 02:32N 24°25' E 118°17'2 1.7
2014-Oct-15 01:25N 24°27' E 118°17'4 4.3
2014-Oct-15 00:29N 24°31' E 118°14'6 2.8
2014-Oct-14 22:19N 24°25' E 118°17'0 0.0
2014-Oct-14 21:11N 24°25' E 118°17'0 0.0
2014-Oct-14 19:31N 24°25' E 118°17'0 0.0
2014-Oct-14 18:32N 24°25' E 118°17'0 0.0
2014-Oct-14 17:26N 24°25' E 118°17'0 0.0
2014-Oct-14 16:15N 24°25' E 118°17'9 1.3
2014-Oct-14 09:31N 24°32' E 118°11'9 9.3
2014-Oct-14 08:33N 24°25' E 118°17'0 0.0
2014-Oct-14 07:06N 24°25' E 118°17'1 0.9
2014-Oct-14 06:33N 24°25' E 118°17'  
Track history (hours):
 
Tides and Currents Weather Stations Pressure Air Temp Water Temp Dewpoint Dewpoint Depression Visibility Wind Speed Wind Dir Waves Ship Positions

Marco Polo

Last reported at 2014-Oct-24 06:23 UTC. Time now 2014-Oct-24 07:05 UTC.
Position N 24°25' E 118°17'.

Length 32 m.

MMSI: 416000256.

Date/timePositionNaut miles runAvg speedWind from/ knotsBaromVisibWave heightAir tempDewpointWater temp
2014-Oct-24 06:23N 24°25' E 118°17'0 0.0
2014-Oct-24 04:25N 24°25' E 118°17'8 8.7
2014-Oct-24 03:31N 24°32' E 118°12'0 0.1
2014-Oct-24 02:33N 24°32' E 118°12'8 6.9
2014-Oct-24 01:23N 24°25' E 118°17'0 0.3
2014-Oct-24 00:30N 24°25' E 118°17'0 0.0
2014-Oct-23 23:23N 24°25' E 118°17'0 0.0
2014-Oct-23 20:14N 24°25' E 118°17'0 0.0
2014-Oct-23 18:23N 24°25' E 118°17'0 0.0
2014-Oct-23 17:33N 24°25' E 118°17'0 0.0
2014-Oct-23 16:30N 24°25' E 118°17'0 0.0
2014-Oct-23 15:33N 24°25' E 118°17'0 0.0
2014-Oct-23 14:33N 24°25' E 118°17'0 0.0
2014-Oct-23 09:13N 24°25' E 118°17'0 0.4
2014-Oct-23 08:32N 24°25' E 118°17'9 8.8
2014-Oct-23 07:32N 24°32' E 118°11'9 8.8
2014-Oct-23 06:31N 24°25' E 118°17'0 0.3
2014-Oct-23 05:28N 24°25' E 118°17'9 8.4
2014-Oct-23 04:26N 24°32' E 118°11'2 1.9
2014-Oct-23 03:33N 24°32' E 118°13'7 2.4
2014-Oct-23 00:30N 24°25' E 118°17'0 0.0
2014-Oct-22 18:09N 24°25' E 118°17'0 0.0
2014-Oct-22 15:11N 24°25' E 118°17'0 0.1
2014-Oct-22 07:33N 24°25' E 118°17'9 8.2
2014-Oct-22 06:28N 24°32' E 118°11'9 9.8
2014-Oct-22 05:33N 24°25' E 118°17'0 0.1
2014-Oct-22 04:28N 24°25' E 118°17'0 0.5
2014-Oct-22 03:31N 24°25' E 118°17'1 0.8
2014-Oct-22 02:33N 24°26' E 118°17'7 6.8
2014-Oct-22 01:32N 24°32' E 118°12'8 8.2
2014-Oct-22 00:33N 24°25' E 118°17'0 0.0
2014-Oct-21 23:31N 24°25' E 118°17'0 0.0
2014-Oct-21 22:33N 24°25' E 118°17'0 0.0
2014-Oct-21 21:33N 24°25' E 118°17'0 0.0
2014-Oct-21 20:33N 24°25' E 118°17'0 0.0
2014-Oct-21 19:33N 24°25' E 118°17'0 0.0
2014-Oct-21 18:32N 24°25' E 118°17'0 0.0
2014-Oct-21 17:33N 24°25' E 118°17'0 0.0
2014-Oct-21 16:34N 24°25' E 118°17'0 0.0
2014-Oct-21 15:33N 24°25' E 118°17'0 0.0
2014-Oct-21 14:31N 24°25' E 118°17'0 0.1
2014-Oct-21 09:33N 24°25' E 118°17'9 8.5
2014-Oct-21 08:32N 24°32' E 118°11'9 8.8
2014-Oct-21 07:31N 24°25' E 118°17'0 0.4
2014-Oct-21 06:34N 24°25' E 118°17'0 0.2
2014-Oct-21 04:15N 24°25' E 118°17'811.7
2014-Oct-21 03:32N 24°32' E 118°12'1 0.7
2014-Oct-21 02:33N 24°32' E 118°13'8 7.8
2014-Oct-21 01:33N 24°25' E 118°17'0 0.5
2014-Oct-21 00:33N 24°25' E 118°17'0 0.0
2014-Oct-20 23:32N 24°25' E 118°17'0 0.0
2014-Oct-20 22:34N 24°25' E 118°17'0 0.0
2014-Oct-20 21:33N 24°25' E 118°17'0 0.0
2014-Oct-20 20:26N 24°25' E 118°17'0 0.0
2014-Oct-20 19:32N 24°25' E 118°17'0 0.0
2014-Oct-20 18:33N 24°25' E 118°17'0 0.0
2014-Oct-20 17:33N 24°25' E 118°17'0 0.0
2014-Oct-20 16:33N 24°25' E 118°17'0 0.0
2014-Oct-20 15:34N 24°25' E 118°17'0 0.0
2014-Oct-20 09:19N 24°25' E 118°17'0 0.0
2014-Oct-20 08:33N 24°25' E 118°17'0 0.1
2014-Oct-20 06:33N 24°25' E 118°17'9 8.5
2014-Oct-20 05:32N 24°32' E 118°11'2 1.7
2014-Oct-20 04:32N 24°31' E 118°13'7 7.6
2014-Oct-20 03:33N 24°25' E 118°17'0 0.5
2014-Oct-20 02:33N 24°25' E 118°17'0 0.4
2014-Oct-20 01:33N 24°26' E 118°17'7 7.0
2014-Oct-20 00:33N 24°32' E 118°13'8 7.6
2014-Oct-19 23:31N 24°25' E 118°17'0 0.0
2014-Oct-19 22:33N 24°25' E 118°17'0 0.0
2014-Oct-19 21:33N 24°25' E 118°17'0 0.0
2014-Oct-19 20:33N 24°25' E 118°17'0 0.0
2014-Oct-19 19:33N 24°25' E 118°17'0 0.0
2014-Oct-19 18:32N 24°25' E 118°17'0 0.0
2014-Oct-19 17:32N 24°25' E 118°17'0 0.0
2014-Oct-19 16:33N 24°25' E 118°17'0 0.0
2014-Oct-19 15:33N 24°25' E 118°17'0 0.0
2014-Oct-19 10:09N 24°25' E 118°17'813.9
2014-Oct-19 09:33N 24°32' E 118°12'8 7.7
2014-Oct-19 08:33N 24°26' E 118°17'0 0.4
2014-Oct-19 07:33N 24°25' E 118°17'0 0.1
2014-Oct-19 06:30N 24°25' E 118°17'0 0.0
2014-Oct-19 05:32N 24°25' E 118°17'0 0.0
2014-Oct-19 04:27N 24°25' E 118°17'0 0.0
2014-Oct-19 03:33N 24°25' E 118°17'0 0.0
2014-Oct-19 02:27N 24°25' E 118°17'0 0.0
2014-Oct-19 01:29N 24°25' E 118°17'0 0.0
2014-Oct-19 00:33N 24°25' E 118°17'0 0.0
2014-Oct-18 23:33N 24°25' E 118°17'0 0.0
2014-Oct-18 22:33N 24°25' E 118°17'0 0.0
2014-Oct-18 21:33N 24°25' E 118°17'0 0.0
2014-Oct-18 20:33N 24°25' E 118°17'0 0.0
2014-Oct-18 19:32N 24°25' E 118°17'0 0.0
2014-Oct-18 18:33N 24°25' E 118°17'0 0.0
2014-Oct-18 17:33N 24°25' E 118°17'0 0.0
2014-Oct-18 16:33N 24°25' E 118°17'0 0.0
2014-Oct-18 15:33N 24°25' E 118°17'0 0.0
2014-Oct-18 14:23N 24°25' E 118°17'0 0.0
2014-Oct-18 13:33N 24°25' E 118°17'0 0.0
2014-Oct-18 12:31N 24°25' E 118°17'0 0.0
2014-Oct-18 11:26N 24°25' E 118°17'0 0.0
2014-Oct-18 10:31N 24°25' E 118°17'0 0.0
2014-Oct-18 09:30N 24°25' E 118°17'0 0.2
2014-Oct-18 08:33N 24°25' E 118°17'9 8.7
2014-Oct-18 07:34N 24°32' E 118°11'9 8.8
2014-Oct-18 06:33N 24°25' E 118°17'0 0.3
2014-Oct-18 05:33N 24°25' E 118°17'0 0.0
2014-Oct-18 04:33N 24°25' E 118°17'8 7.5
2014-Oct-18 03:33N 24°32' E 118°13'0 0.4
2014-Oct-18 02:33N 24°31' E 118°13'8 7.2
2014-Oct-18 01:31N 24°25' E 118°17'0 0.5
2014-Oct-18 00:33N 24°25' E 118°17'0 0.0
2014-Oct-17 23:33N 24°25' E 118°17'0 0.0
2014-Oct-17 22:34N 24°25' E 118°17'0 0.0
2014-Oct-17 21:32N 24°25' E 118°17'0 0.0
2014-Oct-17 20:33N 24°25' E 118°17'0 0.0
2014-Oct-17 19:33N 24°25' E 118°17'0 0.0
2014-Oct-17 18:31N 24°25' E 118°17'0 0.0
2014-Oct-17 17:33N 24°25' E 118°17'0 0.0
2014-Oct-17 16:34N 24°25' E 118°17'0 0.0
2014-Oct-17 15:33N 24°25' E 118°17'0 0.0
2014-Oct-17 14:30N 24°25' E 118°17'0 0.0
2014-Oct-17 12:17N 24°25' E 118°17'0 0.0
2014-Oct-17 10:13N 24°25' E 118°17'0 0.0
2014-Oct-17 09:33N 24°25' E 118°17'0 0.0
2014-Oct-17 08:33N 24°25' E 118°17'0 0.2
2014-Oct-17 07:33N 24°25' E 118°17'9 8.3
2014-Oct-17 06:31N 24°32' E 118°11'9 9.1
2014-Oct-17 05:32N 24°25' E 118°17'0 0.0
2014-Oct-17 04:33N 24°25' E 118°17'0 0.3
2014-Oct-17 03:11N 24°25' E 118°17'0 0.6
2014-Oct-17 02:33N 24°26' E 118°17'7 7.4
2014-Oct-17 01:33N 24°32' E 118°12'8 6.8
2014-Oct-17 00:21N 24°25' E 118°17'0 0.0
2014-Oct-16 23:33N 24°25' E 118°17'0 0.0
2014-Oct-16 22:32N 24°25' E 118°17'0 0.0
2014-Oct-16 21:30N 24°25' E 118°17'0 0.0
2014-Oct-16 20:29N 24°25' E 118°17'0 0.0
2014-Oct-16 19:32N 24°25' E 118°17'0 0.0
2014-Oct-16 18:33N 24°25' E 118°17'0 0.0
2014-Oct-16 17:33N 24°25' E 118°17'0 0.0
2014-Oct-16 16:33N 24°25' E 118°17'0 0.0
2014-Oct-16 15:32N 24°25' E 118°17'0 0.0
2014-Oct-16 14:32N 24°25' E 118°17'0 0.0
2014-Oct-16 09:33N 24°25' E 118°17'9 8.8
2014-Oct-16 08:32N 24°32' E 118°11'8 8.3
2014-Oct-16 07:31N 24°26' E 118°17'0 0.2
2014-Oct-16 06:33N 24°25' E 118°17'0 0.1
2014-Oct-16 05:31N 24°25' E 118°17'7 7.3
2014-Oct-16 04:33N 24°31' E 118°13'1 0.6
2014-Oct-16 03:33N 24°32' E 118°12'8 7.8
2014-Oct-16 02:31N 24°25' E 118°17'0 0.4
2014-Oct-16 01:30N 24°25' E 118°17'0 0.0
2014-Oct-15 23:12N 24°25' E 118°17'0 0.0
2014-Oct-15 22:33N 24°25' E 118°17'0 0.0
2014-Oct-15 21:31N 24°25' E 118°17'0 0.0
2014-Oct-15 17:27N 24°25' E 118°17'0 0.0
2014-Oct-15 16:33N 24°25' E 118°17'0 0.0
2014-Oct-15 15:32N 24°25' E 118°17'0 0.0
2014-Oct-15 14:33N 24°25' E 118°17'0 0.0
2014-Oct-15 09:33N 24°25' E 118°17'0 0.0
2014-Oct-15 08:32N 24°25' E 118°17'0 0.2
2014-Oct-15 07:32N 24°25' E 118°17'9 8.7
2014-Oct-15 06:32N 24°32' E 118°11'9 8.6
2014-Oct-15 05:30N 24°25' E 118°17'0 0.1
2014-Oct-15 04:27N 24°25' E 118°17'0 0.5
2014-Oct-15 03:32N 24°25' E 118°17'0 0.0
2014-Oct-15 02:32N 24°25' E 118°17'2 1.7
2014-Oct-15 01:25N 24°27' E 118°17'4 4.3
2014-Oct-15 00:29N 24°31' E 118°14'6 2.8
2014-Oct-14 22:19N 24°25' E 118°17'0 0.0
2014-Oct-14 21:11N 24°25' E 118°17'0 0.0
2014-Oct-14 19:31N 24°25' E 118°17'0 0.0
2014-Oct-14 18:32N 24°25' E 118°17'0 0.0
2014-Oct-14 17:26N 24°25' E 118°17'0 0.0
2014-Oct-14 16:15N 24°25' E 118°17'9 1.3
2014-Oct-14 09:31N 24°32' E 118°11'9 9.3
2014-Oct-14 08:33N 24°25' E 118°17'0 0.0
2014-Oct-14 07:06N 24°25' E 118°17'1 0.9
2014-Oct-14 06:33N 24°25' E 118°17'  

Dump ship's entire track history